createdAt,value
2019-05-14T00:00:41.547Z,9.99
2019-05-14T00:01:38.851Z,9.99
2019-05-14T00:02:41.192Z,10.09
2019-05-14T00:03:41.202Z,10.05
2019-05-14T00:04:38.818Z,10.03
2019-05-14T00:05:38.817Z,10.06
2019-05-14T00:06:38.813Z,10.10
2019-05-14T00:07:41.212Z,9.91
2019-05-14T00:08:38.774Z,10.01
2019-05-14T00:09:41.148Z,9.94
2019-05-14T00:10:38.752Z,10.02
2019-05-14T00:11:38.794Z,9.94
2019-05-14T00:12:38.734Z,9.87
2019-05-14T00:13:38.778Z,9.85
2019-05-14T00:14:40.274Z,9.93
2019-05-14T00:15:38.845Z,9.84
2019-05-14T00:16:38.714Z,9.88
2019-05-14T00:17:38.774Z,9.83
2019-05-14T00:18:38.674Z,9.66
2019-05-14T00:19:41.358Z,9.69
2019-05-14T00:20:38.639Z,9.72
2019-05-14T00:21:38.725Z,9.75
2019-05-14T00:22:38.614Z,9.67
2019-05-14T00:23:38.610Z,9.87
2019-05-14T00:24:38.636Z,9.67
2019-05-14T00:25:38.587Z,9.62
2019-05-14T00:26:38.572Z,9.69
2019-05-14T00:27:38.562Z,9.70
2019-05-14T00:28:38.561Z,9.75
2019-05-14T00:29:38.580Z,9.67
2019-05-14T00:30:38.525Z,9.72
2019-05-14T00:31:38.515Z,9.67
2019-05-14T00:32:38.501Z,9.60
2019-05-14T00:33:38.499Z,9.52
2019-05-14T00:34:38.479Z,9.50
2019-05-14T00:35:38.499Z,9.57
2019-05-14T00:36:38.457Z,9.54
2019-05-14T00:37:38.448Z,9.45
2019-05-14T00:38:38.432Z,9.45
2019-05-14T00:39:38.427Z,9.48
2019-05-14T00:40:38.442Z,9.48
2019-05-14T00:41:38.403Z,9.42
2019-05-14T00:42:38.426Z,9.42
2019-05-14T00:43:38.386Z,9.45
2019-05-14T00:44:51.596Z,9.45
2019-05-14T00:45:41.635Z,9.48
2019-05-14T00:46:38.356Z,9.52
2019-05-14T00:47:38.335Z,9.32
2019-05-14T00:48:38.322Z,9.19
2019-05-14T00:49:38.319Z,9.26
2019-05-14T00:50:38.330Z,9.22
2019-05-14T00:51:38.311Z,9.26
2019-05-14T00:52:38.286Z,9.37
2019-05-14T00:53:38.268Z,9.22
2019-05-14T00:54:38.257Z,9.12
2019-05-14T00:55:38.274Z,9.15
2019-05-14T00:56:38.233Z,9.11
2019-05-14T00:57:38.222Z,9.12
2019-05-14T00:58:38.220Z,9.09
2019-05-14T00:59:38.196Z,9.16
2019-05-14T01:00:38.211Z,9.11
2019-05-14T01:01:38.172Z,9.08
2019-05-14T01:02:38.170Z,8.96
2019-05-14T01:03:38.165Z,8.92
2019-05-14T01:04:38.152Z,8.93
2019-05-14T01:05:38.157Z,8.88
2019-05-14T01:06:38.116Z,8.95
2019-05-14T01:07:38.109Z,8.93
2019-05-14T01:08:38.099Z,8.85
2019-05-14T01:09:38.081Z,8.92
2019-05-14T01:10:38.108Z,9.01
2019-05-14T01:11:38.061Z,8.93
2019-05-14T01:12:38.049Z,8.99
2019-05-14T01:13:38.044Z,8.95
2019-05-14T01:14:38.139Z,8.86
2019-05-14T01:15:38.047Z,9.08
2019-05-14T01:16:38.247Z,9.04
2019-05-14T01:17:38.020Z,9.01
2019-05-14T01:18:38.026Z,8.92
2019-05-14T01:19:37.971Z,9.11
2019-05-14T01:20:38.002Z,8.99
2019-05-14T01:21:37.958Z,9.04
2019-05-14T01:22:37.956Z,9.09
2019-05-14T01:23:37.923Z,9.12
2019-05-14T01:24:37.917Z,9.06
2019-05-14T01:25:37.927Z,9.01
2019-05-14T01:26:37.968Z,8.93
2019-05-14T01:27:37.887Z,8.98
2019-05-14T01:28:37.912Z,9.09
2019-05-14T01:29:37.859Z,9.03
2019-05-14T01:30:37.946Z,9.09
2019-05-14T01:31:37.882Z,9.15
2019-05-14T01:32:37.842Z,9.14
2019-05-14T01:33:37.817Z,8.98
2019-05-14T01:34:37.857Z,8.96
2019-05-14T01:35:37.792Z,8.92
2019-05-14T01:36:37.881Z,8.85
2019-05-14T01:37:37.776Z,8.86
2019-05-14T01:38:37.756Z,8.77
2019-05-14T01:39:37.746Z,8.88
2019-05-14T01:40:37.759Z,8.83
2019-05-14T01:41:37.744Z,8.81
2019-05-14T01:42:37.719Z,8.90
2019-05-14T01:43:37.708Z,8.77
2019-05-14T01:44:37.687Z,8.77
2019-05-14T01:45:37.678Z,8.56
2019-05-14T01:46:37.691Z,8.63
2019-05-14T01:47:37.654Z,8.52
2019-05-14T01:48:37.643Z,8.52
2019-05-14T01:49:37.638Z,8.44
2019-05-14T01:50:37.621Z,8.46
2019-05-14T01:51:37.636Z,8.41
2019-05-14T01:52:37.597Z,8.46
2019-05-14T01:53:37.596Z,8.42
2019-05-14T01:54:37.604Z,8.46
2019-05-14T01:55:37.565Z,8.41
2019-05-14T01:56:37.584Z,8.55
2019-05-14T01:57:37.542Z,8.38
2019-05-14T01:58:37.542Z,8.47
2019-05-14T01:59:37.522Z,8.47
2019-05-14T02:00:37.509Z,8.46
2019-05-14T02:01:37.533Z,8.41
2019-05-14T02:02:37.521Z,8.26
2019-05-14T02:03:37.490Z,8.26
2019-05-14T02:04:37.467Z,8.37
2019-05-14T02:05:37.453Z,8.41
2019-05-14T02:06:37.446Z,8.44
2019-05-14T02:07:37.457Z,8.62
2019-05-14T02:08:37.418Z,8.56
2019-05-14T02:09:37.406Z,8.55
2019-05-14T02:10:37.403Z,8.50
2019-05-14T02:11:37.388Z,8.46
2019-05-14T02:12:37.400Z,8.63
2019-05-14T02:13:37.373Z,8.47
2019-05-14T02:14:37.354Z,8.53
2019-05-14T02:15:40.605Z,8.59
2019-05-14T02:16:38.334Z,8.49
2019-05-14T02:17:37.346Z,8.52
2019-05-14T02:18:37.309Z,8.41
2019-05-14T02:19:37.295Z,8.37
2019-05-14T02:20:37.288Z,8.47
2019-05-14T02:21:37.274Z,8.46
2019-05-14T02:22:37.292Z,8.49
2019-05-14T02:23:37.257Z,8.37
2019-05-14T02:24:37.242Z,8.41
2019-05-14T02:25:37.227Z,8.46
2019-05-14T02:26:37.216Z,8.52
2019-05-14T02:27:37.235Z,8.53
2019-05-14T02:28:37.193Z,8.52
2019-05-14T02:29:37.187Z,8.42
2019-05-14T02:30:51.189Z,8.38
2019-05-14T02:31:39.303Z,8.39
2019-05-14T02:32:40.369Z,8.41
2019-05-14T02:33:39.704Z,8.29
2019-05-14T02:34:39.838Z,8.26
2019-05-14T02:35:39.741Z,8.35
2019-05-14T02:36:39.862Z,8.26
2019-05-14T02:37:40.214Z,8.19
2019-05-14T02:38:38.921Z,8.29
2019-05-14T02:39:40.588Z,8.19
2019-05-14T02:40:40.151Z,8.14
2019-05-14T02:41:39.192Z,8.10
2019-05-14T02:42:40.232Z,8.02
2019-05-14T02:43:40.651Z,7.96
2019-05-14T02:44:40.319Z,7.91
2019-05-14T02:45:45.193Z,7.84
2019-05-14T02:46:40.529Z,7.84
2019-05-14T02:47:39.720Z,7.78
2019-05-14T02:48:40.184Z,7.78
2019-05-14T02:49:39.933Z,7.68
2019-05-14T02:50:39.466Z,7.61
2019-05-14T02:51:39.168Z,7.60
2019-05-14T02:52:39.909Z,7.50
2019-05-14T02:53:39.107Z,7.61
2019-05-14T02:54:40.012Z,7.39
2019-05-14T02:55:39.042Z,7.49
2019-05-14T02:56:39.981Z,7.47
2019-05-14T02:57:39.382Z,7.49
2019-05-14T02:58:39.892Z,7.37
2019-05-14T02:59:39.333Z,7.49
2019-05-14T03:00:40.426Z,7.37
2019-05-14T03:01:40.511Z,7.54
2019-05-14T03:02:40.027Z,7.47
2019-05-14T03:03:39.848Z,7.46
2019-05-14T03:04:39.593Z,7.42
2019-05-14T03:05:39.918Z,7.42
2019-05-14T03:06:39.393Z,7.44
2019-05-14T03:07:39.441Z,7.21
2019-05-14T03:08:39.055Z,7.29
2019-05-14T03:09:39.961Z,7.31
2019-05-14T03:10:39.968Z,7.43
2019-05-14T03:11:39.997Z,7.42
2019-05-14T03:12:39.536Z,7.28
2019-05-14T03:13:39.763Z,7.44
2019-05-14T03:14:39.310Z,7.39
2019-05-14T03:15:39.159Z,7.29
2019-05-14T03:16:40.081Z,7.31
2019-05-14T03:17:40.070Z,7.29
2019-05-14T03:18:39.535Z,7.40
2019-05-14T03:19:36.634Z,7.40
2019-05-14T03:20:38.994Z,7.28
2019-05-14T03:21:39.560Z,7.40
2019-05-14T03:22:52.490Z,7.49
2019-05-14T03:23:39.366Z,7.50
2019-05-14T03:24:39.414Z,7.44
2019-05-14T03:25:39.774Z,7.55
2019-05-14T03:26:39.518Z,7.49
2019-05-14T03:27:40.127Z,7.43
2019-05-14T03:28:39.789Z,7.40
2019-05-14T03:29:39.803Z,7.54
2019-05-14T03:30:41.705Z,7.49
2019-05-14T03:31:41.902Z,7.61
2019-05-14T03:32:42.500Z,7.54
2019-05-14T03:33:43.129Z,7.54
2019-05-14T03:34:43.194Z,7.54
2019-05-14T03:35:44.342Z,7.55
2019-05-14T03:37:39.041Z,7.58
2019-05-14T03:38:39.466Z,7.54
2019-05-14T03:39:39.425Z,7.52
2019-05-14T03:40:36.383Z,7.52
2019-05-14T03:41:39.362Z,7.62
2019-05-14T03:42:39.645Z,7.58
2019-05-14T03:43:39.126Z,7.60
2019-05-14T03:44:39.553Z,7.60
2019-05-14T03:45:38.927Z,7.52
2019-05-14T03:46:48.589Z,7.55
2019-05-14T03:47:39.401Z,7.57
2019-05-14T03:48:36.294Z,7.61
2019-05-14T03:49:39.378Z,7.50
2019-05-14T03:50:38.894Z,7.64
2019-05-14T03:51:39.147Z,7.58
2019-05-14T03:52:39.637Z,7.46
2019-05-14T03:53:52.242Z,7.52
2019-05-14T03:54:40.221Z,7.44
2019-05-14T03:55:40.002Z,7.60
2019-05-14T03:56:39.203Z,7.61
2019-05-14T03:57:39.590Z,7.60
2019-05-14T03:58:39.101Z,7.62
2019-05-14T03:59:40.058Z,7.61
2019-05-14T04:00:39.036Z,7.52
2019-05-14T04:01:39.692Z,7.46
2019-05-14T04:02:38.941Z,7.46
2019-05-14T04:03:39.588Z,7.49
2019-05-14T04:04:39.116Z,7.50
2019-05-14T04:05:37.110Z,7.54
2019-05-14T04:06:36.094Z,7.62
2019-05-14T04:07:39.103Z,7.47
2019-05-14T04:08:38.962Z,7.47
2019-05-14T04:09:36.066Z,7.46
2019-05-14T04:10:39.114Z,7.49
2019-05-14T04:11:36.048Z,7.37
2019-05-14T04:12:36.025Z,7.47
2019-05-14T04:13:36.015Z,7.57
2019-05-14T04:14:36.022Z,7.49
2019-05-14T04:15:39.051Z,7.54
2019-05-14T04:16:35.975Z,7.62
2019-05-14T04:17:38.764Z,7.62
2019-05-14T04:18:40.287Z,7.55
2019-05-14T04:19:39.160Z,7.47
2019-05-14T04:20:39.116Z,7.57
2019-05-14T04:21:35.928Z,7.60
2019-05-14T04:22:39.088Z,7.64
2019-05-14T04:23:39.306Z,7.71
2019-05-14T04:24:37.056Z,7.66
2019-05-14T04:25:38.911Z,7.73
2019-05-14T04:26:53.192Z,7.66
2019-05-14T04:27:39.877Z,7.69
2019-05-14T04:28:38.950Z,7.61
2019-05-14T04:29:39.420Z,7.71
2019-05-14T04:30:35.828Z,7.68
2019-05-14T04:31:38.898Z,7.81
2019-05-14T04:32:35.818Z,7.69
2019-05-14T04:33:39.011Z,7.73
2019-05-14T04:34:39.193Z,7.73
2019-05-14T04:35:35.765Z,7.80
2019-05-14T04:36:39.020Z,7.71
2019-05-14T04:37:35.753Z,7.69
2019-05-14T04:38:35.729Z,7.71
2019-05-14T04:39:35.723Z,7.81
2019-05-14T04:40:35.713Z,7.77
2019-05-14T04:41:39.108Z,7.66
2019-05-14T04:42:35.683Z,7.73
2019-05-14T04:43:35.676Z,7.73
2019-05-14T04:44:35.659Z,7.74
2019-05-14T04:45:35.649Z,7.83
2019-05-14T04:46:35.668Z,7.77
2019-05-14T04:47:37.395Z,7.71
2019-05-14T04:48:42.325Z,7.62
2019-05-14T04:49:39.569Z,7.76
2019-05-14T04:50:35.593Z,7.73
2019-05-14T04:51:35.617Z,7.74
2019-05-14T04:52:35.571Z,7.77
2019-05-14T04:53:35.561Z,7.78
2019-05-14T04:54:35.560Z,7.87
2019-05-14T04:55:35.568Z,7.73
2019-05-14T04:56:35.551Z,7.77
2019-05-14T04:57:35.515Z,7.81
2019-05-14T04:58:35.508Z,7.84
2019-05-14T04:59:35.490Z,7.78
2019-05-14T05:00:35.479Z,7.84
2019-05-14T05:01:35.480Z,7.76
2019-05-14T05:02:35.494Z,7.71
2019-05-14T05:03:35.453Z,7.83
2019-05-14T05:04:35.443Z,7.92
2019-05-14T05:05:35.422Z,7.96
2019-05-14T05:06:35.454Z,7.87
2019-05-14T05:07:35.399Z,7.96
2019-05-14T05:08:35.402Z,7.91
2019-05-14T05:09:35.374Z,8.02
2019-05-14T05:10:35.365Z,7.99
2019-05-14T05:11:35.351Z,7.98
2019-05-14T05:12:35.365Z,8.01
2019-05-14T05:13:35.333Z,8.05
2019-05-14T05:14:35.319Z,8.10
2019-05-14T05:15:35.309Z,8.24
2019-05-14T05:16:35.303Z,8.23
2019-05-14T05:17:44.257Z,8.14
2019-05-14T05:18:36.270Z,8.12
2019-05-14T05:19:35.265Z,8.09
2019-05-14T05:20:35.252Z,8.06
2019-05-14T05:21:35.239Z,8.10
2019-05-14T05:22:35.249Z,8.12
2019-05-14T05:23:35.216Z,8.19
2019-05-14T05:24:35.214Z,8.13
2019-05-14T05:25:35.190Z,8.20
2019-05-14T05:26:35.179Z,8.14
2019-05-14T05:27:35.202Z,8.04
2019-05-14T05:28:35.159Z,8.19
2019-05-14T05:29:35.151Z,8.16
2019-05-14T05:30:35.134Z,8.16
2019-05-14T05:31:35.124Z,8.13
2019-05-14T05:32:35.170Z,8.21
2019-05-14T05:33:35.103Z,8.26
2019-05-14T05:34:35.150Z,8.29
2019-05-14T05:35:35.093Z,8.26
2019-05-14T05:36:35.090Z,8.29
2019-05-14T05:37:35.136Z,8.44
2019-05-14T05:38:35.052Z,8.42
2019-05-14T05:39:35.039Z,8.42
2019-05-14T05:40:35.025Z,8.42
2019-05-14T05:41:35.023Z,8.50
2019-05-14T05:42:35.105Z,8.44
2019-05-14T05:43:35.012Z,8.46
2019-05-14T05:44:35.083Z,8.55
2019-05-14T05:45:34.968Z,8.47
2019-05-14T05:46:34.979Z,8.53
2019-05-14T05:47:34.946Z,8.56
2019-05-14T05:48:35.035Z,8.56
2019-05-14T05:49:34.919Z,8.65
2019-05-14T05:50:34.931Z,8.50
2019-05-14T05:51:34.902Z,8.56
2019-05-14T05:52:34.935Z,8.56
2019-05-14T05:53:34.961Z,8.71
2019-05-14T05:54:34.930Z,8.67
2019-05-14T05:55:34.853Z,8.62
2019-05-14T05:56:34.859Z,8.74
2019-05-14T05:57:34.848Z,8.67
2019-05-14T05:58:34.885Z,8.74
2019-05-14T05:59:34.810Z,8.71
2019-05-14T06:00:34.801Z,8.74
2019-05-14T06:01:44.850Z,8.78
2019-05-14T06:02:35.790Z,8.75
2019-05-14T06:03:34.822Z,8.86
2019-05-14T06:04:34.776Z,8.93
2019-05-14T06:05:34.753Z,8.89
2019-05-14T06:06:34.727Z,8.93
2019-05-14T06:07:34.733Z,8.90
2019-05-14T06:08:34.753Z,8.86
2019-05-14T06:09:34.716Z,8.86
2019-05-14T06:10:34.684Z,8.81
2019-05-14T06:11:34.677Z,8.83
2019-05-14T06:12:34.676Z,8.93
2019-05-14T06:13:34.689Z,8.93
2019-05-14T06:14:34.655Z,9.09
2019-05-14T06:15:47.594Z,8.93
2019-05-14T06:16:35.617Z,9.04
2019-05-14T06:17:34.605Z,9.15
2019-05-14T06:18:34.725Z,9.15
2019-05-14T06:19:34.587Z,9.24
2019-05-14T06:20:34.592Z,9.23
2019-05-14T06:21:34.606Z,9.16
2019-05-14T06:22:34.556Z,9.19
2019-05-14T06:23:34.570Z,9.19
2019-05-14T06:24:34.573Z,9.16
2019-05-14T06:25:34.527Z,9.16
2019-05-14T06:26:34.533Z,9.22
2019-05-14T06:27:34.499Z,9.29
2019-05-14T06:28:34.489Z,9.40
2019-05-14T06:29:34.513Z,9.44
2019-05-14T06:30:34.476Z,9.52
2019-05-14T06:31:34.465Z,9.57
2019-05-14T06:32:34.458Z,9.59
2019-05-14T06:33:34.429Z,9.77
2019-05-14T06:34:34.491Z,9.65
2019-05-14T06:35:34.418Z,9.77
2019-05-14T06:36:34.420Z,9.85
2019-05-14T06:37:34.399Z,9.85
2019-05-14T06:38:34.386Z,9.85
2019-05-14T06:39:34.406Z,9.96
2019-05-14T06:40:34.356Z,10.01
2019-05-14T06:41:34.341Z,9.96
2019-05-14T06:42:34.392Z,10.14
2019-05-14T06:43:34.343Z,10.08
2019-05-14T06:44:34.343Z,9.99
2019-05-14T06:45:34.294Z,10.06
2019-05-14T06:46:34.288Z,10.16
2019-05-14T06:47:34.282Z,10.14
2019-05-14T06:48:34.880Z,10.14
2019-05-14T06:49:34.282Z,10.30
2019-05-14T06:50:34.247Z,10.36
2019-05-14T06:51:34.228Z,10.23
2019-05-14T06:52:34.224Z,10.24
2019-05-14T06:53:34.209Z,10.20
2019-05-14T06:54:34.240Z,10.21
2019-05-14T06:55:34.196Z,10.20
2019-05-14T06:56:34.173Z,10.35
2019-05-14T06:57:34.165Z,10.27
2019-05-14T06:58:34.149Z,10.38
2019-05-14T06:59:34.194Z,10.45
2019-05-14T07:00:34.150Z,10.62
2019-05-14T07:01:34.130Z,10.55
2019-05-14T07:02:34.103Z,10.67
2019-05-14T07:03:34.100Z,10.62
2019-05-14T07:04:34.119Z,10.76
2019-05-14T07:05:34.096Z,10.80
2019-05-14T07:06:34.058Z,10.73
2019-05-14T07:07:34.054Z,10.87
2019-05-14T07:08:34.049Z,10.93
2019-05-14T07:09:34.064Z,10.83
2019-05-14T07:10:34.051Z,10.90
2019-05-14T07:11:34.006Z,10.87
2019-05-14T07:12:34.000Z,10.93
2019-05-14T07:13:33.989Z,10.94
2019-05-14T07:14:33.972Z,11.03
2019-05-14T07:15:33.985Z,10.90
2019-05-14T07:16:33.956Z,10.97
2019-05-14T07:17:33.970Z,11.13
2019-05-14T07:18:48.573Z,11.11
2019-05-14T07:19:34.928Z,11.15
2019-05-14T07:20:33.934Z,11.20
2019-05-14T07:21:33.905Z,11.18
2019-05-14T07:22:33.886Z,11.18
2019-05-14T07:23:33.868Z,11.28
2019-05-14T07:24:37.003Z,11.38
2019-05-14T07:25:34.877Z,11.36
2019-05-14T07:26:33.836Z,11.34
2019-05-14T07:27:33.828Z,11.40
2019-05-14T07:28:33.818Z,11.43
2019-05-14T07:29:33.807Z,11.48
2019-05-14T07:30:33.818Z,11.45
2019-05-14T07:31:33.782Z,11.43
2019-05-14T07:32:33.767Z,11.48
2019-05-14T07:33:33.756Z,11.55
2019-05-14T07:34:33.751Z,11.55
2019-05-14T07:35:33.765Z,11.61
2019-05-14T07:36:33.724Z,11.62
2019-05-14T07:37:33.715Z,11.55
2019-05-14T07:38:33.700Z,11.54
2019-05-14T07:39:33.694Z,11.67
2019-05-14T07:40:33.696Z,11.73
2019-05-14T07:41:33.713Z,11.64
2019-05-14T07:42:33.659Z,11.64
2019-05-14T07:43:33.648Z,11.64
2019-05-14T07:44:33.633Z,11.76
2019-05-14T07:45:33.658Z,11.88
2019-05-14T07:46:33.663Z,11.82
2019-05-14T07:47:33.603Z,11.79
2019-05-14T07:48:33.586Z,11.70
2019-05-14T07:49:33.595Z,11.70
2019-05-14T07:50:33.578Z,11.85
2019-05-14T07:51:33.576Z,11.84
2019-05-14T07:52:33.554Z,11.95
2019-05-14T07:53:38.517Z,12.00
2019-05-14T07:54:34.543Z,12.05
2019-05-14T07:55:33.512Z,11.97
2019-05-14T07:56:33.523Z,12.23
2019-05-14T07:57:33.490Z,12.21
2019-05-14T07:58:33.475Z,12.15
2019-05-14T07:59:33.466Z,12.30
2019-05-14T08:00:33.468Z,12.33
2019-05-14T08:01:33.490Z,12.33
2019-05-14T08:02:33.437Z,12.35
2019-05-14T08:03:33.427Z,12.35
2019-05-14T08:04:33.417Z,12.41
2019-05-14T08:05:33.395Z,12.36
2019-05-14T08:06:33.422Z,12.51
2019-05-14T08:07:33.385Z,12.51
2019-05-14T08:08:33.368Z,12.58
2019-05-14T08:09:33.386Z,12.61
2019-05-14T08:10:33.343Z,12.71
2019-05-14T08:11:33.358Z,12.61
2019-05-14T08:12:33.325Z,12.76
2019-05-14T08:13:33.312Z,12.69
2019-05-14T08:14:41.900Z,12.65
2019-05-14T08:15:34.288Z,12.73
2019-05-14T08:16:33.287Z,12.65
2019-05-14T08:17:33.320Z,12.71
2019-05-14T08:18:33.261Z,12.84
2019-05-14T08:19:34.503Z,12.86
2019-05-14T08:20:33.237Z,12.63
2019-05-14T08:21:33.254Z,12.73
2019-05-14T08:22:33.254Z,12.87
2019-05-14T08:23:33.199Z,12.79
2019-05-14T08:24:33.192Z,12.81
2019-05-14T08:25:33.196Z,12.84
2019-05-14T08:26:33.218Z,12.80
2019-05-14T08:27:33.154Z,12.81
2019-05-14T08:28:33.146Z,12.79
2019-05-14T08:30:34.244Z,12.83
2019-05-14T08:31:33.109Z,12.91
2019-05-14T08:32:33.132Z,12.84
2019-05-14T08:33:33.091Z,12.83
2019-05-14T08:34:33.083Z,12.87
2019-05-14T08:35:35.133Z,12.88
2019-05-14T08:36:33.076Z,12.91
2019-05-14T08:37:33.068Z,13.04
2019-05-14T08:38:33.031Z,13.05
2019-05-14T08:39:33.022Z,13.26
2019-05-14T08:40:33.011Z,13.23
2019-05-14T08:41:33.004Z,13.40
2019-05-14T08:42:34.374Z,13.45
2019-05-14T08:43:32.999Z,13.43
2019-05-14T08:44:33.027Z,13.43
2019-05-14T08:45:33.095Z,13.45
2019-05-14T08:46:32.963Z,13.36
2019-05-14T08:47:33.155Z,13.29
2019-05-14T08:48:32.926Z,13.23
2019-05-14T08:49:41.961Z,13.20
2019-05-14T08:50:33.902Z,13.36
2019-05-14T08:51:32.962Z,13.42
2019-05-14T08:52:32.911Z,13.57
2019-05-14T08:53:32.872Z,13.63
2019-05-14T08:54:32.862Z,13.75
2019-05-14T08:55:32.908Z,13.75
2019-05-14T08:56:32.846Z,13.72
2019-05-14T08:57:32.998Z,13.86
2019-05-14T08:58:32.833Z,13.90
2019-05-14T08:59:32.803Z,14.03
2019-05-14T09:00:32.796Z,14.23
2019-05-14T09:01:32.795Z,14.26
2019-05-14T09:02:32.782Z,14.26
2019-05-14T09:03:32.792Z,14.16
2019-05-14T09:04:32.761Z,14.11
2019-05-14T09:05:32.730Z,14.12
2019-05-14T09:06:32.724Z,14.13
2019-05-14T09:07:32.709Z,14.13
2019-05-14T09:08:32.773Z,13.94
2019-05-14T09:09:32.687Z,14.09
2019-05-14T09:10:32.674Z,14.03
2019-05-14T09:11:35.675Z,14.05
2019-05-14T09:12:32.653Z,14.28
2019-05-14T09:13:32.732Z,14.19
2019-05-14T09:14:32.633Z,14.28
2019-05-14T09:15:32.627Z,14.26
2019-05-14T09:16:43.199Z,14.26
2019-05-14T09:17:33.589Z,14.11
2019-05-14T09:18:32.634Z,13.80
2019-05-14T09:19:32.576Z,13.86
2019-05-14T09:20:32.567Z,13.67
2019-05-14T09:21:32.553Z,13.65
2019-05-14T09:22:32.540Z,13.67
2019-05-14T09:23:32.559Z,13.72
2019-05-14T09:24:32.529Z,13.88
2019-05-14T09:25:32.562Z,14.01
2019-05-14T09:26:32.498Z,14.12
2019-05-14T09:27:32.482Z,14.19
2019-05-14T09:28:32.507Z,14.30
2019-05-14T09:29:32.495Z,14.33
2019-05-14T09:30:32.477Z,14.23
2019-05-14T09:31:32.450Z,14.05
2019-05-14T09:32:32.426Z,14.04
2019-05-14T09:33:32.455Z,13.94
2019-05-14T09:34:32.403Z,13.98
2019-05-14T09:35:32.387Z,13.79
2019-05-14T09:36:32.378Z,13.86
2019-05-14T09:37:32.374Z,13.98
2019-05-14T09:38:32.350Z,14.11
2019-05-14T09:39:32.379Z,13.97
2019-05-14T09:40:32.363Z,13.90
2019-05-14T09:41:32.321Z,13.96
2019-05-14T09:42:32.311Z,13.83
2019-05-14T09:43:32.294Z,13.91
2019-05-14T09:44:32.321Z,13.91
2019-05-14T09:45:32.284Z,13.79
2019-05-14T09:46:32.264Z,13.75
2019-05-14T09:47:32.253Z,13.85
2019-05-14T09:48:32.337Z,13.72
2019-05-14T09:49:32.231Z,13.71
2019-05-14T09:50:32.216Z,13.85
2019-05-14T09:51:32.200Z,13.64
2019-05-14T09:52:32.194Z,13.65
2019-05-14T09:53:32.204Z,13.65
2019-05-14T09:54:32.230Z,13.73
2019-05-14T09:55:32.164Z,13.75
2019-05-14T09:56:32.151Z,13.68
2019-05-14T09:57:32.132Z,13.61
2019-05-14T09:58:32.121Z,13.75
2019-05-14T09:59:32.156Z,13.83
2019-05-14T10:00:32.215Z,13.85
2019-05-14T10:01:32.087Z,13.90
2019-05-14T10:02:32.188Z,14.08
2019-05-14T10:03:32.073Z,14.26
2019-05-14T10:04:32.142Z,14.31
2019-05-14T10:05:32.047Z,14.53
2019-05-14T10:06:32.061Z,14.56
2019-05-14T10:07:32.043Z,14.61
2019-05-14T10:08:32.018Z,14.59
2019-05-14T10:09:32.031Z,14.59
2019-05-14T10:10:32.030Z,14.53
2019-05-14T10:11:31.976Z,14.53
2019-05-14T10:12:31.967Z,14.19
2019-05-14T10:13:31.958Z,14.30
2019-05-14T10:14:31.937Z,14.22
2019-05-14T10:15:31.963Z,14.18
2019-05-14T10:16:31.917Z,14.05
2019-05-14T10:17:31.912Z,14.16
2019-05-14T10:18:31.892Z,14.04
2019-05-14T10:19:31.885Z,14.21
2019-05-14T10:20:41.115Z,14.23
2019-05-14T10:21:32.887Z,14.41
2019-05-14T10:22:31.851Z,14.45
2019-05-14T10:23:31.845Z,14.53
2019-05-14T10:24:31.833Z,14.51
2019-05-14T10:25:31.841Z,14.70
2019-05-14T10:26:31.806Z,14.63
2019-05-14T10:27:31.800Z,14.69
2019-05-14T10:28:31.781Z,14.59
2019-05-14T10:29:31.773Z,14.85
2019-05-14T10:30:31.814Z,14.86
2019-05-14T10:31:31.781Z,14.87
2019-05-14T10:32:31.770Z,14.86
2019-05-14T10:33:31.720Z,14.71
2019-05-14T10:34:31.714Z,14.79
2019-05-14T10:35:31.731Z,14.87
2019-05-14T10:36:31.720Z,14.78
2019-05-14T10:37:31.679Z,14.96
2019-05-14T10:38:31.671Z,15.07
2019-05-14T10:39:31.653Z,15.01
2019-05-14T10:40:31.648Z,15.26
2019-05-14T10:41:31.659Z,15.04
2019-05-14T10:42:31.620Z,15.08
2019-05-14T10:43:31.632Z,15.20
2019-05-14T10:44:31.600Z,15.08
2019-05-14T10:45:31.583Z,15.29
2019-05-14T10:46:31.600Z,15.25
2019-05-14T10:47:31.576Z,15.40
2019-05-14T10:48:31.554Z,15.52
2019-05-14T10:49:31.545Z,15.83
2019-05-14T10:50:31.530Z,16.00
2019-05-14T10:51:31.556Z,16.03
2019-05-14T10:52:31.512Z,16.17
2019-05-14T10:53:31.492Z,16.13
2019-05-14T10:54:31.479Z,16.16
2019-05-14T10:55:31.478Z,16.17
2019-05-14T10:56:31.496Z,16.33
2019-05-14T10:57:31.455Z,16.28
2019-05-14T10:58:31.437Z,16.26
2019-05-14T10:59:31.441Z,15.88
2019-05-14T11:00:31.422Z,15.72
2019-05-14T11:01:31.431Z,15.41
2019-05-14T11:02:31.398Z,15.35
2019-05-14T11:03:31.404Z,15.44
2019-05-14T11:04:34.332Z,15.50
2019-05-14T11:05:31.402Z,15.56
2019-05-14T11:06:31.401Z,15.54
2019-05-14T11:07:31.437Z,15.65
2019-05-14T11:08:31.328Z,15.66
2019-05-14T11:09:31.390Z,15.68
2019-05-14T11:10:31.304Z,15.56
2019-05-14T11:11:31.336Z,15.68
2019-05-14T11:12:31.281Z,15.65
2019-05-14T11:13:31.269Z,15.66
2019-05-14T11:14:31.877Z,15.72
2019-05-14T11:15:31.248Z,15.76
2019-05-14T11:16:31.264Z,15.58
2019-05-14T11:17:31.309Z,15.56
2019-05-14T11:18:31.219Z,15.72
2019-05-14T11:19:31.243Z,15.73
2019-05-14T11:20:31.397Z,15.59
2019-05-14T11:21:31.202Z,15.63
2019-05-14T11:22:31.214Z,15.65
2019-05-14T11:23:31.158Z,15.56
2019-05-14T11:24:31.178Z,15.77
2019-05-14T11:25:31.137Z,15.66
2019-05-14T11:26:31.134Z,15.78
2019-05-14T11:27:31.147Z,15.76
2019-05-14T11:28:31.095Z,15.87
2019-05-14T11:29:31.095Z,15.84
2019-05-14T11:30:31.094Z,16.02
2019-05-14T11:31:34.217Z,16.22
2019-05-14T11:32:31.080Z,16.25
2019-05-14T11:33:31.086Z,16.37
2019-05-14T11:34:31.031Z,16.37
2019-05-14T11:35:31.034Z,16.46
2019-05-14T11:36:31.019Z,16.61
2019-05-14T11:37:31.047Z,16.69
2019-05-14T11:38:37.280Z,16.90
2019-05-14T11:39:31.975Z,16.92
2019-05-14T11:40:30.971Z,16.79
2019-05-14T11:41:30.959Z,16.58
2019-05-14T11:42:31.625Z,16.39
2019-05-14T11:43:30.934Z,16.37
2019-05-14T11:44:30.921Z,16.42
2019-05-14T11:45:30.905Z,16.34
2019-05-14T11:46:44.578Z,16.25
2019-05-14T11:47:31.915Z,16.29
2019-05-14T11:48:30.915Z,16.47
2019-05-14T11:49:30.867Z,16.54
2019-05-14T11:50:30.856Z,16.61
2019-05-14T11:51:58.428Z,16.62
2019-05-14T11:52:31.832Z,16.51
2019-05-14T11:53:30.842Z,16.65
2019-05-14T11:54:30.812Z,16.52
2019-05-14T11:55:30.813Z,16.57
2019-05-14T11:56:30.786Z,16.57
2019-05-14T11:57:30.779Z,16.65
2019-05-14T11:58:30.806Z,16.64
2019-05-14T11:59:30.752Z,16.73
2019-05-14T12:00:30.761Z,16.73
2019-05-14T12:01:30.728Z,16.84
2019-05-14T12:02:30.728Z,16.98
2019-05-14T12:03:30.735Z,17.01
2019-05-14T12:04:30.697Z,17.16
2019-05-14T12:05:30.710Z,17.12
2019-05-14T12:06:30.696Z,17.22
2019-05-14T12:07:30.666Z,17.32
2019-05-14T12:08:30.682Z,17.19
2019-05-14T12:09:30.665Z,17.10
2019-05-14T12:10:30.646Z,17.34
2019-05-14T12:11:30.625Z,17.25
2019-05-14T12:12:30.608Z,17.20
2019-05-14T12:13:32.963Z,17.17
2019-05-14T12:14:30.606Z,17.39
2019-05-14T12:15:30.580Z,17.50
2019-05-14T12:16:30.568Z,17.45
2019-05-14T12:17:30.555Z,17.38
2019-05-14T12:18:30.544Z,17.35
2019-05-14T12:19:30.555Z,17.24
2019-05-14T12:20:30.533Z,17.35
2019-05-14T12:21:30.509Z,17.22
2019-05-14T12:22:30.496Z,17.30
2019-05-14T12:23:30.503Z,17.32
2019-05-14T12:24:30.498Z,17.37
2019-05-14T12:25:30.477Z,17.43
2019-05-14T12:26:30.456Z,17.49
2019-05-14T12:27:30.448Z,17.49
2019-05-14T12:28:30.439Z,17.65
2019-05-14T12:29:30.417Z,17.54
2019-05-14T12:30:30.454Z,17.52
2019-05-14T12:31:30.411Z,17.53
2019-05-14T12:32:30.391Z,17.73
2019-05-14T12:33:31.777Z,17.68
2019-05-14T12:34:30.360Z,17.54
2019-05-14T12:35:30.373Z,17.56
2019-05-14T12:36:30.357Z,17.52
2019-05-14T12:37:30.328Z,17.52
2019-05-14T12:38:30.324Z,17.53
2019-05-14T12:39:30.316Z,17.46
2019-05-14T12:40:30.320Z,17.47
2019-05-14T12:41:30.281Z,17.56
2019-05-14T12:42:30.276Z,17.52
2019-05-14T12:43:30.262Z,17.72
2019-05-14T12:44:30.264Z,17.71
2019-05-14T12:45:30.310Z,17.78
2019-05-14T12:46:30.258Z,17.68
2019-05-14T12:47:30.221Z,17.78
2019-05-14T12:48:30.204Z,17.78
2019-05-14T12:49:30.191Z,17.63
2019-05-14T12:50:30.215Z,17.66
2019-05-14T12:51:30.173Z,17.68
2019-05-14T12:52:30.160Z,17.84
2019-05-14T12:53:30.149Z,17.73
2019-05-14T12:54:30.140Z,17.76
2019-05-14T12:55:30.163Z,17.56
2019-05-14T12:56:30.115Z,17.69
2019-05-14T12:57:30.199Z,17.86
2019-05-14T12:58:30.103Z,17.93
2019-05-14T12:59:30.077Z,17.97
2019-05-14T13:00:30.101Z,17.99
2019-05-14T13:01:30.225Z,18.12
2019-05-14T13:02:30.047Z,18.13
2019-05-14T13:03:30.044Z,18.38
2019-05-14T13:04:30.040Z,18.41
2019-05-14T13:05:30.086Z,18.36
2019-05-14T13:06:30.024Z,18.46
2019-05-14T13:07:30.014Z,18.46